sensor_id;sensor_type;location;lat;lon;timestamp;temperature;humidity
75451;DHT22;64029;48.244;9.188;2024-03-22T00:00:57;7.00;85.10
75451;DHT22;64029;48.244;9.188;2024-03-22T00:03:22;7.00;85.10
75451;DHT22;64029;48.244;9.188;2024-03-22T00:05:51;7.00;85.20
75451;DHT22;64029;48.244;9.188;2024-03-22T00:08:17;6.90;85.20
75451;DHT22;64029;48.244;9.188;2024-03-22T00:10:43;6.90;85.10
75451;DHT22;64029;48.244;9.188;2024-03-22T00:13:09;6.80;85.10
75451;DHT22;64029;48.244;9.188;2024-03-22T00:15:36;6.80;85.20
75451;DHT22;64029;48.244;9.188;2024-03-22T00:18:03;6.70;85.30
75451;DHT22;64029;48.244;9.188;2024-03-22T00:20:29;6.70;85.30
75451;DHT22;64029;48.244;9.188;2024-03-22T00:22:57;6.60;85.10
75451;DHT22;64029;48.244;9.188;2024-03-22T00:25:23;6.60;85.20
75451;DHT22;64029;48.244;9.188;2024-03-22T00:27:49;6.60;85.00
75451;DHT22;64029;48.244;9.188;2024-03-22T00:30:16;6.50;84.90
75451;DHT22;64029;48.244;9.188;2024-03-22T00:32:42;6.50;85.20
75451;DHT22;64029;48.244;9.188;2024-03-22T00:35:10;6.50;85.30
75451;DHT22;64029;48.244;9.188;2024-03-22T00:37:36;6.40;85.20
75451;DHT22;64029;48.244;9.188;2024-03-22T00:40:06;6.40;85.50
75451;DHT22;64029;48.244;9.188;2024-03-22T00:42:32;6.30;85.10
75451;DHT22;64029;48.244;9.188;2024-03-22T00:44:59;6.30;85.10
75451;DHT22;64029;48.244;9.188;2024-03-22T00:47:24;6.20;85.10
75451;DHT22;64029;48.244;9.188;2024-03-22T00:49:51;6.20;85.20
75451;DHT22;64029;48.244;9.188;2024-03-22T00:52:17;6.20;85.20
75451;DHT22;64029;48.244;9.188;2024-03-22T00:54:44;6.10;85.10
75451;DHT22;64029;48.244;9.188;2024-03-22T00:57:12;6.10;85.20
75451;DHT22;64029;48.244;9.188;2024-03-22T00:59:39;6.00;85.10
75451;DHT22;64029;48.244;9.188;2024-03-22T01:02:05;6.00;85.00
75451;DHT22;64029;48.244;9.188;2024-03-22T01:04:31;6.00;84.80
75451;DHT22;64029;48.244;9.188;2024-03-22T01:06:59;5.90;84.60
75451;DHT22;64029;48.244;9.188;2024-03-22T01:09:26;5.80;84.20
75451;DHT22;64029;48.244;9.188;2024-03-22T01:11:51;5.80;84.20
75451;DHT22;64029;48.244;9.188;2024-03-22T01:14:19;5.80;84.30
75451;DHT22;64029;48.244;9.188;2024-03-22T01:16:45;5.80;84.20
75451;DHT22;64029;48.244;9.188;2024-03-22T01:19:12;5.80;84.20
75451;DHT22;64029;48.244;9.188;2024-03-22T01:21:38;5.70;84.10
75451;DHT22;64029;48.244;9.188;2024-03-22T01:24:05;5.70;84.30
75451;DHT22;64029;48.244;9.188;2024-03-22T01:26:31;5.70;84.40
75451;DHT22;64029;48.244;9.188;2024-03-22T01:28:58;5.60;84.40
75451;DHT22;64029;48.244;9.188;2024-03-22T01:31:25;5.60;84.40
75451;DHT22;64029;48.244;9.188;2024-03-22T01:33:52;5.50;84.40
75451;DHT22;64029;48.244;9.188;2024-03-22T01:36:18;5.50;84.50
75451;DHT22;64029;48.244;9.188;2024-03-22T01:38:44;5.40;84.70
75451;DHT22;64029;48.244;9.188;2024-03-22T01:41:10;5.40;84.90
75451;DHT22;64029;48.244;9.188;2024-03-22T01:43:37;5.30;84.90
75451;DHT22;64029;48.244;9.188;2024-03-22T01:46:04;5.30;84.90
75451;DHT22;64029;48.244;9.188;2024-03-22T01:48:32;5.30;85.00
75451;DHT22;64029;48.244;9.188;2024-03-22T01:50:58;5.20;84.80
75451;DHT22;64029;48.244;9.188;2024-03-22T01:53:25;5.20;85.00
75451;DHT22;64029;48.244;9.188;2024-03-22T01:55:51;5.10;85.00
75451;DHT22;64029;48.244;9.188;2024-03-22T01:58:18;5.10;84.90
75451;DHT22;64029;48.244;9.188;2024-03-22T02:00:44;5.10;84.70
75451;DHT22;64029;48.244;9.188;2024-03-22T02:03:11;5.00;84.60
75451;DHT22;64029;48.244;9.188;2024-03-22T02:05:39;5.00;84.70
75451;DHT22;64029;48.244;9.188;2024-03-22T02:08:06;5.00;84.80
75451;DHT22;64029;48.244;9.188;2024-03-22T02:10:32;5.00;85.10
75451;DHT22;64029;48.244;9.188;2024-03-22T02:12:59;4.90;85.00
75451;DHT22;64029;48.244;9.188;2024-03-22T02:15:25;4.90;84.70
75451;DHT22;64029;48.244;9.188;2024-03-22T02:17:52;4.80;84.60
75451;DHT22;64029;48.244;9.188;2024-03-22T02:20:17;4.80;84.70
75451;DHT22;64029;48.244;9.188;2024-03-22T02:22:46;4.80;84.80
75451;DHT22;64029;48.244;9.188;2024-03-22T02:25:13;4.70;84.80
75451;DHT22;64029;48.244;9.188;2024-03-22T02:27:40;4.70;84.60
75451;DHT22;64029;48.244;9.188;2024-03-22T02:30:07;4.70;84.50
75451;DHT22;64029;48.244;9.188;2024-03-22T02:32:34;4.60;84.30
75451;DHT22;64029;48.244;9.188;2024-03-22T02:35:00;4.60;84.30
75451;DHT22;64029;48.244;9.188;2024-03-22T02:37:27;4.60;84.20
75451;DHT22;64029;48.244;9.188;2024-03-22T02:39:53;4.50;84.30
75451;DHT22;64029;48.244;9.188;2024-03-22T02:42:22;4.50;84.30
75451;DHT22;64029;48.244;9.188;2024-03-22T02:44:47;4.50;84.40
75451;DHT22;64029;48.244;9.188;2024-03-22T02:47:14;4.40;84.40
75451;DHT22;64029;48.244;9.188;2024-03-22T02:49:41;4.40;84.50
75451;DHT22;64029;48.244;9.188;2024-03-22T02:52:08;4.40;84.30
75451;DHT22;64029;48.244;9.188;2024-03-22T02:54:34;4.30;84.10
75451;DHT22;64029;48.244;9.188;2024-03-22T02:57:01;4.30;84.10
75451;DHT22;64029;48.244;9.188;2024-03-22T02:59:28;4.30;84.70
75451;DHT22;64029;48.244;9.188;2024-03-22T03:01:55;4.30;84.00
75451;DHT22;64029;48.244;9.188;2024-03-22T03:04:21;4.20;83.90
75451;DHT22;64029;48.244;9.188;2024-03-22T03:06:48;4.20;83.90
75451;DHT22;64029;48.244;9.188;2024-03-22T03:09:14;4.10;83.90
75451;DHT22;64029;48.244;9.188;2024-03-22T03:11:41;4.10;83.90
75451;DHT22;64029;48.244;9.188;2024-03-22T03:14:07;4.10;83.80
75451;DHT22;64029;48.244;9.188;2024-03-22T03:16:36;4.00;83.70
75451;DHT22;64029;48.244;9.188;2024-03-22T03:19:03;4.00;83.80
75451;DHT22;64029;48.244;9.188;2024-03-22T03:21:28;4.00;83.90
75451;DHT22;64029;48.244;9.188;2024-03-22T03:23:56;3.90;83.90
75451;DHT22;64029;48.244;9.188;2024-03-22T03:26:22;3.90;83.90
75451;DHT22;64029;48.244;9.188;2024-03-22T03:28:48;3.90;83.90
75451;DHT22;64029;48.244;9.188;2024-03-22T03:31:14;3.90;83.90
75451;DHT22;64029;48.244;9.188;2024-03-22T03:33:43;3.80;83.80
75451;DHT22;64029;48.244;9.188;2024-03-22T03:36:08;3.80;83.70
75451;DHT22;64029;48.244;9.188;2024-03-22T03:38:35;3.80;83.70
75451;DHT22;64029;48.244;9.188;2024-03-22T03:41:03;3.80;84.10
75451;DHT22;64029;48.244;9.188;2024-03-22T03:43:30;3.70;84.30
75451;DHT22;64029;48.244;9.188;2024-03-22T03:45:56;3.60;84.50
75451;DHT22;64029;48.244;9.188;2024-03-22T03:48:23;3.60;84.40
75451;DHT22;64029;48.244;9.188;2024-03-22T03:50:54;3.60;84.30
75451;DHT22;64029;48.244;9.188;2024-03-22T03:53:24;3.60;84.30
75451;DHT22;64029;48.244;9.188;2024-03-22T03:55:50;3.60;84.30
75451;DHT22;64029;48.244;9.188;2024-03-22T03:58:17;3.50;84.20
75451;DHT22;64029;48.244;9.188;2024-03-22T04:00:43;3.50;84.10
75451;DHT22;64029;48.244;9.188;2024-03-22T04:03:10;3.50;84.20
75451;DHT22;64029;48.244;9.188;2024-03-22T04:05:36;3.50;84.20
75451;DHT22;64029;48.244;9.188;2024-03-22T04:08:05;3.50;84.10
75451;DHT22;64029;48.244;9.188;2024-03-22T04:10:31;3.50;84.10
75451;DHT22;64029;48.244;9.188;2024-03-22T04:12:58;3.50;84.00
75451;DHT22;64029;48.244;9.188;2024-03-22T04:15:24;3.50;83.90
75451;DHT22;64029;48.244;9.188;2024-03-22T04:17:51;3.40;83.90
75451;DHT22;64029;48.244;9.188;2024-03-22T04:20:17;3.40;83.80
75451;DHT22;64029;48.244;9.188;2024-03-22T04:22:44;3.40;83.80
75451;DHT22;64029;48.244;9.188;2024-03-22T04:25:11;3.40;83.80
75451;DHT22;64029;48.244;9.188;2024-03-22T04:27:38;3.40;83.90
75451;DHT22;64029;48.244;9.188;2024-03-22T04:30:06;3.40;84.00
75451;DHT22;64029;48.244;9.188;2024-03-22T04:32:33;3.40;84.00
75451;DHT22;64029;48.244;9.188;2024-03-22T04:34:59;3.40;83.80
75451;DHT22;64029;48.244;9.188;2024-03-22T04:37:26;3.40;83.90
75451;DHT22;64029;48.244;9.188;2024-03-22T04:39:53;3.40;84.00
75451;DHT22;64029;48.244;9.188;2024-03-22T04:42:21;3.30;84.00
75451;DHT22;64029;48.244;9.188;2024-03-22T04:44:48;3.30;84.10
75451;DHT22;64029;48.244;9.188;2024-03-22T04:47:14;3.30;84.30
75451;DHT22;64029;48.244;9.188;2024-03-22T04:49:40;3.30;84.20
75451;DHT22;64029;48.244;9.188;2024-03-22T04:52:07;3.30;84.10
75451;DHT22;64029;48.244;9.188;2024-03-22T04:54:33;3.30;83.90
75451;DHT22;64029;48.244;9.188;2024-03-22T04:57:00;3.20;84.00
75451;DHT22;64029;48.244;9.188;2024-03-22T04:59:28;3.20;84.10
75451;DHT22;64029;48.244;9.188;2024-03-22T05:01:55;3.20;84.20
75451;DHT22;64029;48.244;9.188;2024-03-22T05:04:21;3.20;84.90
75451;DHT22;64029;48.244;9.188;2024-03-22T05:06:47;3.10;84.70
75451;DHT22;64029;48.244;9.188;2024-03-22T05:09:14;3.10;84.50
75451;DHT22;64029;48.244;9.188;2024-03-22T05:11:40;3.10;84.30
75451;DHT22;64029;48.244;9.188;2024-03-22T05:14:07;3.10;84.30
75451;DHT22;64029;48.244;9.188;2024-03-22T05:16:34;3.10;84.30
75451;DHT22;64029;48.244;9.188;2024-03-22T05:19:01;3.00;84.20
75451;DHT22;64029;48.244;9.188;2024-03-22T05:21:27;3.00;84.20
75451;DHT22;64029;48.244;9.188;2024-03-22T05:23:53;3.00;84.30
75451;DHT22;64029;48.244;9.188;2024-03-22T05:26:19;3.00;84.40
75451;DHT22;64029;48.244;9.188;2024-03-22T05:28:46;3.00;84.30
75451;DHT22;64029;48.244;9.188;2024-03-22T05:31:12;3.00;84.40
75451;DHT22;64029;48.244;9.188;2024-03-22T05:33:40;3.00;84.40
75451;DHT22;64029;48.244;9.188;2024-03-22T05:36:06;3.00;84.40
75451;DHT22;64029;48.244;9.188;2024-03-22T05:38:33;3.00;84.20
75451;DHT22;64029;48.244;9.188;2024-03-22T05:41:03;3.00;84.20
75451;DHT22;64029;48.244;9.188;2024-03-22T05:43:30;2.90;84.20
75451;DHT22;64029;48.244;9.188;2024-03-22T05:45:56;2.90;84.30
75451;DHT22;64029;48.244;9.188;2024-03-22T05:48:23;2.90;84.10
75451;DHT22;64029;48.244;9.188;2024-03-22T05:50:51;3.00;84.30
75451;DHT22;64029;48.244;9.188;2024-03-22T05:53:18;3.00;84.20
75451;DHT22;64029;48.244;9.188;2024-03-22T05:55:44;2.90;84.10
75451;DHT22;64029;48.244;9.188;2024-03-22T05:58:11;3.00;84.70
75451;DHT22;64029;48.244;9.188;2024-03-22T06:00:37;3.00;85.10
75451;DHT22;64029;48.244;9.188;2024-03-22T06:03:04;3.00;86.30
75451;DHT22;64029;48.244;9.188;2024-03-22T06:05:30;3.00;86.00
75451;DHT22;64029;48.244;9.188;2024-03-22T06:07:59;3.00;85.70
75451;DHT22;64029;48.244;9.188;2024-03-22T06:10:25;3.00;85.40
75451;DHT22;64029;48.244;9.188;2024-03-22T06:12:52;3.00;85.30
75451;DHT22;64029;48.244;9.188;2024-03-22T06:15:17;3.00;85.10
75451;DHT22;64029;48.244;9.188;2024-03-22T06:17:44;3.00;85.20
75451;DHT22;64029;48.244;9.188;2024-03-22T06:20:12;3.10;85.70
75451;DHT22;64029;48.244;9.188;2024-03-22T06:22:39;3.10;85.50
75451;DHT22;64029;48.244;9.188;2024-03-22T06:25:08;3.10;85.40
75451;DHT22;64029;48.244;9.188;2024-03-22T06:27:34;3.10;85.30
75451;DHT22;64029;48.244;9.188;2024-03-22T06:30:00;3.10;86.40
75451;DHT22;64029;48.244;9.188;2024-03-22T06:32:27;3.20;86.30
75451;DHT22;64029;48.244;9.188;2024-03-22T06:34:53;3.20;85.90
75451;DHT22;64029;48.244;9.188;2024-03-22T06:37:20;3.30;86.00
75451;DHT22;64029;48.244;9.188;2024-03-22T06:39:46;3.40;85.70
75451;DHT22;64029;48.244;9.188;2024-03-22T06:42:14;3.40;85.80
75451;DHT22;64029;48.244;9.188;2024-03-22T06:44:40;3.50;85.40
75451;DHT22;64029;48.244;9.188;2024-03-22T06:47:07;3.50;85.40
75451;DHT22;64029;48.244;9.188;2024-03-22T06:49:33;3.60;85.70
75451;DHT22;64029;48.244;9.188;2024-03-22T06:52:00;3.60;85.60
75451;DHT22;64029;48.244;9.188;2024-03-22T06:54:26;3.70;85.70
75451;DHT22;64029;48.244;9.188;2024-03-22T06:56:53;3.80;86.10
75451;DHT22;64029;48.244;9.188;2024-03-22T06:59:20;3.90;86.40
75451;DHT22;64029;48.244;9.188;2024-03-22T07:01:47;4.10;86.70
75451;DHT22;64029;48.244;9.188;2024-03-22T07:04:12;4.20;87.00
75451;DHT22;64029;48.244;9.188;2024-03-22T07:06:39;4.30;87.10
75451;DHT22;64029;48.244;9.188;2024-03-22T07:09:07;4.50;87.50
75451;DHT22;64029;48.244;9.188;2024-03-22T07:11:34;4.60;87.80
75451;DHT22;64029;48.244;9.188;2024-03-22T07:14:00;4.70;87.90
75451;DHT22;64029;48.244;9.188;2024-03-22T07:16:28;4.90;88.10
75451;DHT22;64029;48.244;9.188;2024-03-22T07:18:54;5.00;88.40
75451;DHT22;64029;48.244;9.188;2024-03-22T07:21:21;5.10;88.80
75451;DHT22;64029;48.244;9.188;2024-03-22T07:23:47;5.30;89.10
75451;DHT22;64029;48.244;9.188;2024-03-22T07:26:14;5.40;89.00
75451;DHT22;64029;48.244;9.188;2024-03-22T07:28:39;5.50;89.70
75451;DHT22;64029;48.244;9.188;2024-03-22T07:31:06;5.60;89.90
75451;DHT22;64029;48.244;9.188;2024-03-22T07:33:33;5.70;90.00
75451;DHT22;64029;48.244;9.188;2024-03-22T07:36:02;5.80;90.40
75451;DHT22;64029;48.244;9.188;2024-03-22T07:38:28;5.90;90.20
75451;DHT22;64029;48.244;9.188;2024-03-22T07:40:54;6.00;90.50
75451;DHT22;64029;48.244;9.188;2024-03-22T07:43:20;6.20;90.60
75451;DHT22;64029;48.244;9.188;2024-03-22T07:45:47;6.30;91.00
75451;DHT22;64029;48.244;9.188;2024-03-22T07:48:13;6.50;91.10
75451;DHT22;64029;48.244;9.188;2024-03-22T07:50:42;6.60;91.50
75451;DHT22;64029;48.244;9.188;2024-03-22T07:53:09;6.70;91.10
75451;DHT22;64029;48.244;9.188;2024-03-22T07:55:35;6.90;91.90
75451;DHT22;64029;48.244;9.188;2024-03-22T07:58:02;7.00;91.80
75451;DHT22;64029;48.244;9.188;2024-03-22T08:00:30;7.20;93.00
75451;DHT22;64029;48.244;9.188;2024-03-22T08:02:56;7.40;93.20
75451;DHT22;64029;48.244;9.188;2024-03-22T08:05:23;7.60;93.30
75451;DHT22;64029;48.244;9.188;2024-03-22T08:07:50;7.70;93.20
75451;DHT22;64029;48.244;9.188;2024-03-22T08:10:17;7.90;93.70
75451;DHT22;64029;48.244;9.188;2024-03-22T08:12:43;8.10;93.90
75451;DHT22;64029;48.244;9.188;2024-03-22T08:15:10;8.10;93.50
75451;DHT22;64029;48.244;9.188;2024-03-22T08:17:36;8.40;93.90
75451;DHT22;64029;48.244;9.188;2024-03-22T08:20:04;8.40;93.20
75451;DHT22;64029;48.244;9.188;2024-03-22T08:22:30;8.60;94.20
75451;DHT22;64029;48.244;9.188;2024-03-22T08:24:59;8.80;93.40
75451;DHT22;64029;48.244;9.188;2024-03-22T08:27:27;8.90;93.70
75451;DHT22;64029;48.244;9.188;2024-03-22T08:29:54;9.10;94.00
75451;DHT22;64029;48.244;9.188;2024-03-22T08:32:20;9.20;93.60
75451;DHT22;64029;48.244;9.188;2024-03-22T08:34:47;9.20;93.20
75451;DHT22;64029;48.244;9.188;2024-03-22T08:37:13;9.40;92.90
75451;DHT22;64029;48.244;9.188;2024-03-22T08:39:40;9.70;91.70
75451;DHT22;64029;48.244;9.188;2024-03-22T08:42:08;9.60;91.60
75451;DHT22;64029;48.244;9.188;2024-03-22T08:44:34;9.70;91.10
75451;DHT22;64029;48.244;9.188;2024-03-22T08:47:00;10.00;89.10
75451;DHT22;64029;48.244;9.188;2024-03-22T08:49:27;9.90;90.40
75451;DHT22;64029;48.244;9.188;2024-03-22T08:51:53;10.00;89.20
75451;DHT22;64029;48.244;9.188;2024-03-22T08:54:20;10.00;88.30
75451;DHT22;64029;48.244;9.188;2024-03-22T08:56:46;10.10;88.60
75451;DHT22;64029;48.244;9.188;2024-03-22T08:59:14;10.20;87.40
75451;DHT22;64029;48.244;9.188;2024-03-22T09:01:40;10.40;84.10
75451;DHT22;64029;48.244;9.188;2024-03-22T09:04:07;10.50;85.40
75451;DHT22;64029;48.244;9.188;2024-03-22T09:06:33;10.50;85.80
75451;DHT22;64029;48.244;9.188;2024-03-22T09:09:00;10.60;86.00
75451;DHT22;64029;48.244;9.188;2024-03-22T09:11:26;10.60;86.60
75451;DHT22;64029;48.244;9.188;2024-03-22T09:13:53;10.60;84.30
75451;DHT22;64029;48.244;9.188;2024-03-22T09:16:21;10.80;84.20
75451;DHT22;64029;48.244;9.188;2024-03-22T09:18:48;10.70;86.20
75451;DHT22;64029;48.244;9.188;2024-03-22T09:21:14;10.70;85.60
75451;DHT22;64029;48.244;9.188;2024-03-22T09:23:41;10.80;83.50
75451;DHT22;64029;48.244;9.188;2024-03-22T09:26:07;10.80;83.70
75451;DHT22;64029;48.244;9.188;2024-03-22T09:28:34;10.80;83.90
75451;DHT22;64029;48.244;9.188;2024-03-22T09:31:03;10.90;81.80
75451;DHT22;64029;48.244;9.188;2024-03-22T09:33:32;11.00;80.30
75451;DHT22;64029;48.244;9.188;2024-03-22T09:35:58;11.00;80.40
75451;DHT22;64029;48.244;9.188;2024-03-22T09:38:25;11.00;79.80
75451;DHT22;64029;48.244;9.188;2024-03-22T09:40:51;11.10;79.40
75451;DHT22;64029;48.244;9.188;2024-03-22T09:43:20;11.20;79.10
75451;DHT22;64029;48.244;9.188;2024-03-22T09:45:47;11.30;77.80
75451;DHT22;64029;48.244;9.188;2024-03-22T09:48:14;11.40;78.30
75451;DHT22;64029;48.244;9.188;2024-03-22T09:50:41;11.50;77.90
75451;DHT22;64029;48.244;9.188;2024-03-22T09:53:08;11.50;76.50
75451;DHT22;64029;48.244;9.188;2024-03-22T09:55:36;11.50;77.20
75451;DHT22;64029;48.244;9.188;2024-03-22T09:58:05;11.40;78.30
75451;DHT22;64029;48.244;9.188;2024-03-22T10:00:31;11.50;77.70
75451;DHT22;64029;48.244;9.188;2024-03-22T10:02:58;11.50;77.50
75451;DHT22;64029;48.244;9.188;2024-03-22T10:05:25;11.50;79.10
75451;DHT22;64029;48.244;9.188;2024-03-22T10:07:53;11.40;80.70
75451;DHT22;64029;48.244;9.188;2024-03-22T10:10:19;11.60;77.70
75451;DHT22;64029;48.244;9.188;2024-03-22T10:12:47;11.80;76.60
75451;DHT22;64029;48.244;9.188;2024-03-22T10:15:13;11.90;75.90
75451;DHT22;64029;48.244;9.188;2024-03-22T10:17:40;11.90;75.70
75451;DHT22;64029;48.244;9.188;2024-03-22T10:20:07;12.10;75.10
75451;DHT22;64029;48.244;9.188;2024-03-22T10:22:39;11.90;77.30
75451;DHT22;64029;48.244;9.188;2024-03-22T10:25:09;12.00;75.70
75451;DHT22;64029;48.244;9.188;2024-03-22T10:27:38;12.00;75.90
75451;DHT22;64029;48.244;9.188;2024-03-22T10:30:08;12.20;73.40
75451;DHT22;64029;48.244;9.188;2024-03-22T10:32:35;12.20;73.50
75451;DHT22;64029;48.244;9.188;2024-03-22T10:35:03;12.20;75.60
75451;DHT22;64029;48.244;9.188;2024-03-22T10:37:32;12.20;74.70
75451;DHT22;64029;48.244;9.188;2024-03-22T10:40:01;12.30;72.50
75451;DHT22;64029;48.244;9.188;2024-03-22T10:42:28;12.30;75.10
75451;DHT22;64029;48.244;9.188;2024-03-22T10:44:56;12.10;76.40
75451;DHT22;64029;48.244;9.188;2024-03-22T10:47:24;12.20;74.50
75451;DHT22;64029;48.244;9.188;2024-03-22T10:50:00;12.30;75.60
75451;DHT22;64029;48.244;9.188;2024-03-22T10:52:27;12.50;73.40
75451;DHT22;64029;48.244;9.188;2024-03-22T10:54:55;12.50;75.20
75451;DHT22;64029;48.244;9.188;2024-03-22T10:57:21;12.60;74.40
75451;DHT22;64029;48.244;9.188;2024-03-22T10:59:54;12.70;71.90
75451;DHT22;64029;48.244;9.188;2024-03-22T11:02:23;12.70;72.40
75451;DHT22;64029;48.244;9.188;2024-03-22T11:04:56;12.70;74.00
75451;DHT22;64029;48.244;9.188;2024-03-22T11:07:22;12.80;71.00
75451;DHT22;64029;48.244;9.188;2024-03-22T11:09:52;12.70;73.50
75451;DHT22;64029;48.244;9.188;2024-03-22T11:12:20;13.00;70.60
75451;DHT22;64029;48.244;9.188;2024-03-22T11:14:48;12.90;68.80
75451;DHT22;64029;48.244;9.188;2024-03-22T11:17:15;13.00;69.20
75451;DHT22;64029;48.244;9.188;2024-03-22T11:19:42;13.10;68.10
75451;DHT22;64029;48.244;9.188;2024-03-22T11:22:08;13.20;68.80
75451;DHT22;64029;48.244;9.188;2024-03-22T11:24:37;13.20;66.60
75451;DHT22;64029;48.244;9.188;2024-03-22T11:27:03;13.20;67.70
75451;DHT22;64029;48.244;9.188;2024-03-22T11:29:30;13.10;70.20
75451;DHT22;64029;48.244;9.188;2024-03-22T11:31:57;13.10;68.70
75451;DHT22;64029;48.244;9.188;2024-03-22T11:34:24;13.10;69.10
75451;DHT22;64029;48.244;9.188;2024-03-22T11:36:50;13.10;71.60
75451;DHT22;64029;48.244;9.188;2024-03-22T11:39:17;13.10;72.20
75451;DHT22;64029;48.244;9.188;2024-03-22T11:41:46;13.20;69.90
75451;DHT22;64029;48.244;9.188;2024-03-22T11:44:19;13.40;64.20
75451;DHT22;64029;48.244;9.188;2024-03-22T11:46:45;13.40;64.90
75451;DHT22;64029;48.244;9.188;2024-03-22T11:49:13;13.60;61.70
75451;DHT22;64029;48.244;9.188;2024-03-22T11:51:42;13.70;61.70
75451;DHT22;64029;48.244;9.188;2024-03-22T11:54:14;13.70;64.40
75451;DHT22;64029;48.244;9.188;2024-03-22T11:56:40;13.70;65.20
75451;DHT22;64029;48.244;9.188;2024-03-22T11:59:07;14.00;60.30
75451;DHT22;64029;48.244;9.188;2024-03-22T12:01:33;13.90;61.70
75451;DHT22;64029;48.244;9.188;2024-03-22T12:04:01;14.00;58.80
75451;DHT22;64029;48.244;9.188;2024-03-22T12:06:28;14.00;60.90
75451;DHT22;64029;48.244;9.188;2024-03-22T12:08:55;13.90;64.50
75451;DHT22;64029;48.244;9.188;2024-03-22T12:11:21;14.00;64.00
75451;DHT22;64029;48.244;9.188;2024-03-22T12:13:48;14.10;63.40
75451;DHT22;64029;48.244;9.188;2024-03-22T12:16:14;14.10;61.50
75451;DHT22;64029;48.244;9.188;2024-03-22T12:18:41;14.20;63.50
75451;DHT22;64029;48.244;9.188;2024-03-22T12:21:07;14.10;65.50
75451;DHT22;64029;48.244;9.188;2024-03-22T12:23:39;14.20;61.30
75451;DHT22;64029;48.244;9.188;2024-03-22T12:26:04;14.20;61.80
75451;DHT22;64029;48.244;9.188;2024-03-22T12:28:32;14.10;60.40
75451;DHT22;64029;48.244;9.188;2024-03-22T12:30:57;14.20;62.30
75451;DHT22;64029;48.244;9.188;2024-03-22T12:33:25;14.20;60.90
75451;DHT22;64029;48.244;9.188;2024-03-22T12:35:50;14.20;63.70
75451;DHT22;64029;48.244;9.188;2024-03-22T12:38:19;14.20;60.60
75451;DHT22;64029;48.244;9.188;2024-03-22T12:40:46;14.30;61.00
75451;DHT22;64029;48.244;9.188;2024-03-22T12:43:13;14.20;63.80
75451;DHT22;64029;48.244;9.188;2024-03-22T12:45:39;14.30;60.40
75451;DHT22;64029;48.244;9.188;2024-03-22T12:48:06;14.30;59.50
75451;DHT22;64029;48.244;9.188;2024-03-22T12:50:32;14.40;59.20
75451;DHT22;64029;48.244;9.188;2024-03-22T12:53:01;14.40;59.00
75451;DHT22;64029;48.244;9.188;2024-03-22T12:55:27;14.40;58.40
75451;DHT22;64029;48.244;9.188;2024-03-22T12:57:58;14.60;59.10
75451;DHT22;64029;48.244;9.188;2024-03-22T13:00:24;14.80;58.20
75451;DHT22;64029;48.244;9.188;2024-03-22T13:02:54;14.70;60.20
75451;DHT22;64029;48.244;9.188;2024-03-22T13:05:22;14.60;61.40
75451;DHT22;64029;48.244;9.188;2024-03-22T13:07:50;14.70;59.60
75451;DHT22;64029;48.244;9.188;2024-03-22T13:10:16;14.70;59.80
75451;DHT22;64029;48.244;9.188;2024-03-22T13:12:43;14.70;59.20
75451;DHT22;64029;48.244;9.188;2024-03-22T13:15:15;14.70;59.80
75451;DHT22;64029;48.244;9.188;2024-03-22T13:17:45;14.70;59.80
75451;DHT22;64029;48.244;9.188;2024-03-22T13:20:11;14.80;59.30
75451;DHT22;64029;48.244;9.188;2024-03-22T13:22:41;14.80;58.70
75451;DHT22;64029;48.244;9.188;2024-03-22T13:25:07;14.80;59.00
75451;DHT22;64029;48.244;9.188;2024-03-22T13:27:38;14.80;62.00
75451;DHT22;64029;48.244;9.188;2024-03-22T13:30:08;14.80;60.00
75451;DHT22;64029;48.244;9.188;2024-03-22T13:32:41;14.80;59.90
75451;DHT22;64029;48.244;9.188;2024-03-22T13:35:07;14.80;59.90
75451;DHT22;64029;48.244;9.188;2024-03-22T13:37:36;14.80;62.50
75451;DHT22;64029;48.244;9.188;2024-03-22T13:40:02;14.90;63.10
75451;DHT22;64029;48.244;9.188;2024-03-22T13:42:30;15.00;60.90
75451;DHT22;64029;48.244;9.188;2024-03-22T13:44:56;15.10;58.60
75451;DHT22;64029;48.244;9.188;2024-03-22T13:47:23;15.10;58.60
75451;DHT22;64029;48.244;9.188;2024-03-22T13:49:51;15.20;60.30
75451;DHT22;64029;48.244;9.188;2024-03-22T13:52:19;15.20;60.30
75451;DHT22;64029;48.244;9.188;2024-03-22T13:54:46;15.10;63.10
75451;DHT22;64029;48.244;9.188;2024-03-22T13:57:13;15.10;65.00
75451;DHT22;64029;48.244;9.188;2024-03-22T13:59:40;15.20;59.90
75451;DHT22;64029;48.244;9.188;2024-03-22T14:02:07;15.30;58.90
75451;DHT22;64029;48.244;9.188;2024-03-22T14:04:34;15.30;59.60
75451;DHT22;64029;48.244;9.188;2024-03-22T14:07:02;15.40;59.10
75451;DHT22;64029;48.244;9.188;2024-03-22T14:09:30;15.30;63.10
75451;DHT22;64029;48.244;9.188;2024-03-22T14:11:57;15.30;61.30
75451;DHT22;64029;48.244;9.188;2024-03-22T14:14:25;15.30;60.90
75451;DHT22;64029;48.244;9.188;2024-03-22T14:16:52;15.30;63.00
75451;DHT22;64029;48.244;9.188;2024-03-22T14:19:19;15.40;59.50
75451;DHT22;64029;48.244;9.188;2024-03-22T14:21:45;15.50;61.10
75451;DHT22;64029;48.244;9.188;2024-03-22T14:24:14;15.50;58.80
75451;DHT22;64029;48.244;9.188;2024-03-22T14:26:41;15.50;61.60
75451;DHT22;64029;48.244;9.188;2024-03-22T14:29:11;15.50;59.40
75451;DHT22;64029;48.244;9.188;2024-03-22T14:31:39;15.50;62.50
75451;DHT22;64029;48.244;9.188;2024-03-22T14:34:05;15.50;62.00
75451;DHT22;64029;48.244;9.188;2024-03-22T14:36:33;15.50;59.50
75451;DHT22;64029;48.244;9.188;2024-03-22T14:38:59;15.60;59.50
75451;DHT22;64029;48.244;9.188;2024-03-22T14:41:27;15.60;60.80
75451;DHT22;64029;48.244;9.188;2024-03-22T14:43:53;15.60;62.20
75451;DHT22;64029;48.244;9.188;2024-03-22T14:46:20;15.70;59.40
75451;DHT22;64029;48.244;9.188;2024-03-22T14:48:50;15.70;59.50
75451;DHT22;64029;48.244;9.188;2024-03-22T14:51:17;15.70;59.00
75451;DHT22;64029;48.244;9.188;2024-03-22T14:53:42;15.70;59.70
75451;DHT22;64029;48.244;9.188;2024-03-22T14:56:09;15.80;59.50
75451;DHT22;64029;48.244;9.188;2024-03-22T14:58:39;15.80;60.40
75451;DHT22;64029;48.244;9.188;2024-03-22T15:01:08;15.70;59.50
75451;DHT22;64029;48.244;9.188;2024-03-22T15:03:37;15.70;59.60
75451;DHT22;64029;48.244;9.188;2024-03-22T15:06:04;15.70;58.70
75451;DHT22;64029;48.244;9.188;2024-03-22T15:08:30;15.70;59.00
75451;DHT22;64029;48.244;9.188;2024-03-22T15:11:01;15.60;59.70
75451;DHT22;64029;48.244;9.188;2024-03-22T15:13:28;15.80;59.50
75451;DHT22;64029;48.244;9.188;2024-03-22T15:16:00;15.70;60.60
75451;DHT22;64029;48.244;9.188;2024-03-22T15:18:26;15.70;59.80
75451;DHT22;64029;48.244;9.188;2024-03-22T15:20:53;15.70;59.80
75451;DHT22;64029;48.244;9.188;2024-03-22T15:23:19;15.70;60.30
75451;DHT22;64029;48.244;9.188;2024-03-22T15:25:47;15.70;60.20
75451;DHT22;64029;48.244;9.188;2024-03-22T15:28:14;15.70;60.10
75451;DHT22;64029;48.244;9.188;2024-03-22T15:30:42;15.70;59.90
75451;DHT22;64029;48.244;9.188;2024-03-22T15:33:09;15.60;60.30
75451;DHT22;64029;48.244;9.188;2024-03-22T15:35:36;15.60;59.50
75451;DHT22;64029;48.244;9.188;2024-03-22T15:38:03;15.70;58.20